sensor_id;sensor_type;location;lat;lon;timestamp;temperature;humidity
26964;DHT22;14521;48.148;-1.656;2023-06-22T00:02:45;24.90;87.80
26964;DHT22;14521;48.148;-1.656;2023-06-22T00:06:07;24.70;88.10
26964;DHT22;14521;48.148;-1.656;2023-06-22T00:09:30;24.60;88.90
26964;DHT22;14521;48.148;-1.656;2023-06-22T00:12:53;24.50;89.40
26964;DHT22;14521;48.148;-1.656;2023-06-22T00:16:15;24.40;89.80
26964;DHT22;14521;48.148;-1.656;2023-06-22T00:19:37;24.40;90.00
26964;DHT22;14521;48.148;-1.656;2023-06-22T00:23:03;24.30;90.20
26964;DHT22;14521;48.148;-1.656;2023-06-22T00:26:30;24.30;90.30
26964;DHT22;14521;48.148;-1.656;2023-06-22T00:29:52;24.30;90.50
26964;DHT22;14521;48.148;-1.656;2023-06-22T00:33:16;24.30;90.60
26964;DHT22;14521;48.148;-1.656;2023-06-22T00:36:38;24.20;90.60
26964;DHT22;14521;48.148;-1.656;2023-06-22T00:40:03;24.20;90.70
26964;DHT22;14521;48.148;-1.656;2023-06-22T00:43:30;24.30;90.80
26964;DHT22;14521;48.148;-1.656;2023-06-22T00:46:53;24.30;90.80
26964;DHT22;14521;48.148;-1.656;2023-06-22T00:50:19;24.30;90.90
26964;DHT22;14521;48.148;-1.656;2023-06-22T00:53:43;24.30;90.90
26964;DHT22;14521;48.148;-1.656;2023-06-22T00:57:05;24.20;91.00
26964;DHT22;14521;48.148;-1.656;2023-06-22T01:00:32;24.20;91.10
26964;DHT22;14521;48.148;-1.656;2023-06-22T01:03:55;24.20;91.20
26964;DHT22;14521;48.148;-1.656;2023-06-22T01:14:43;24.10;91.30
26964;DHT22;14521;48.148;-1.656;2023-06-22T01:18:09;24.10;91.40
26964;DHT22;14521;48.148;-1.656;2023-06-22T01:21:32;24.10;91.50
26964;DHT22;14521;48.148;-1.656;2023-06-22T01:25:07;24.10;91.60
26964;DHT22;14521;48.148;-1.656;2023-06-22T01:28:45;24.10;91.70
26964;DHT22;14521;48.148;-1.656;2023-06-22T01:32:08;24.10;91.70
26964;DHT22;14521;48.148;-1.656;2023-06-22T01:35:32;24.00;91.70
26964;DHT22;14521;48.148;-1.656;2023-06-22T01:38:57;24.10;91.80
26964;DHT22;14521;48.148;-1.656;2023-06-22T01:42:19;24.10;91.80
26964;DHT22;14521;48.148;-1.656;2023-06-22T01:45:42;24.10;91.80
26964;DHT22;14521;48.148;-1.656;2023-06-22T01:49:05;24.10;91.80
26964;DHT22;14521;48.148;-1.656;2023-06-22T01:52:27;24.00;91.90
26964;DHT22;14521;48.148;-1.656;2023-06-22T01:55:51;24.00;91.80
26964;DHT22;14521;48.148;-1.656;2023-06-22T02:03:22;24.00;91.80
26964;DHT22;14521;48.148;-1.656;2023-06-22T02:06:47;24.00;91.80
26964;DHT22;14521;48.148;-1.656;2023-06-22T02:10:14;24.00;91.80
26964;DHT22;14521;48.148;-1.656;2023-06-22T02:13:38;24.00;91.80
26964;DHT22;14521;48.148;-1.656;2023-06-22T02:17:05;24.00;91.70
26964;DHT22;14521;48.148;-1.656;2023-06-22T02:20:30;24.10;91.60
26964;DHT22;14521;48.148;-1.656;2023-06-22T02:23:53;24.10;91.50
26964;DHT22;14521;48.148;-1.656;2023-06-22T02:27:15;24.10;91.50
26964;DHT22;14521;48.148;-1.656;2023-06-22T02:30:37;24.10;91.30
26964;DHT22;14521;48.148;-1.656;2023-06-22T02:34:01;24.20;91.20
26964;DHT22;14521;48.148;-1.656;2023-06-22T02:37:24;24.20;91.10
26964;DHT22;14521;48.148;-1.656;2023-06-22T02:40:47;24.20;91.10
26964;DHT22;14521;48.148;-1.656;2023-06-22T02:44:09;24.30;91.10
26964;DHT22;14521;48.148;-1.656;2023-06-22T02:47:32;24.30;90.80
26964;DHT22;14521;48.148;-1.656;2023-06-22T02:50:54;24.20;90.80
26964;DHT22;14521;48.148;-1.656;2023-06-22T02:54:17;24.20;91.30
26964;DHT22;14521;48.148;-1.656;2023-06-22T02:57:41;24.20;90.90
26964;DHT22;14521;48.148;-1.656;2023-06-22T03:01:06;24.20;90.90
26964;DHT22;14521;48.148;-1.656;2023-06-22T03:04:30;24.20;90.80
26964;DHT22;14521;48.148;-1.656;2023-06-22T03:07:53;24.20;91.00
26964;DHT22;14521;48.148;-1.656;2023-06-22T03:11:16;24.10;90.80
26964;DHT22;14521;48.148;-1.656;2023-06-22T03:14:39;24.10;91.00
26964;DHT22;14521;48.148;-1.656;2023-06-22T03:18:01;24.10;91.10
26964;DHT22;14521;48.148;-1.656;2023-06-22T03:21:28;24.00;91.20
26964;DHT22;14521;48.148;-1.656;2023-06-22T03:24:50;24.00;91.30
26964;DHT22;14521;48.148;-1.656;2023-06-22T03:28:13;24.00;91.40
26964;DHT22;14521;48.148;-1.656;2023-06-22T03:31:35;24.00;91.50
26964;DHT22;14521;48.148;-1.656;2023-06-22T03:35:00;23.90;91.50
26964;DHT22;14521;48.148;-1.656;2023-06-22T03:38:22;23.90;91.60
26964;DHT22;14521;48.148;-1.656;2023-06-22T03:41:47;23.90;92.10
26964;DHT22;14521;48.148;-1.656;2023-06-22T03:45:10;23.90;91.60
26964;DHT22;14521;48.148;-1.656;2023-06-22T03:48:32;23.90;91.60
26964;DHT22;14521;48.148;-1.656;2023-06-22T03:51:54;23.90;91.60
26964;DHT22;14521;48.148;-1.656;2023-06-22T03:55:17;23.90;91.60
26964;DHT22;14521;48.148;-1.656;2023-06-22T03:58:39;23.90;91.60
26964;DHT22;14521;48.148;-1.656;2023-06-22T04:02:05;23.90;91.50
26964;DHT22;14521;48.148;-1.656;2023-06-22T04:05:27;23.90;91.50
26964;DHT22;14521;48.148;-1.656;2023-06-22T04:08:49;23.80;91.50
26964;DHT22;14521;48.148;-1.656;2023-06-22T04:12:13;23.80;91.60
26964;DHT22;14521;48.148;-1.656;2023-06-22T04:15:36;23.90;91.50
26964;DHT22;14521;48.148;-1.656;2023-06-22T04:18:58;23.90;91.50
26964;DHT22;14521;48.148;-1.656;2023-06-22T04:22:20;23.90;91.50
26964;DHT22;14521;48.148;-1.656;2023-06-22T04:25:42;23.90;91.50
26964;DHT22;14521;48.148;-1.656;2023-06-22T04:29:05;23.90;91.90
26964;DHT22;14521;48.148;-1.656;2023-06-22T04:32:27;23.80;91.50
26964;DHT22;14521;48.148;-1.656;2023-06-22T04:35:50;23.90;91.60
26964;DHT22;14521;48.148;-1.656;2023-06-22T04:39:12;23.90;91.70
26964;DHT22;14521;48.148;-1.656;2023-06-22T04:42:35;23.90;91.70
26964;DHT22;14521;48.148;-1.656;2023-06-22T04:45:58;23.80;91.80
26964;DHT22;14521;48.148;-1.656;2023-06-22T04:49:26;23.60;92.30
26964;DHT22;14521;48.148;-1.656;2023-06-22T04:52:54;23.50;92.40
26964;DHT22;14521;48.148;-1.656;2023-06-22T04:56:17;23.40;92.00
26964;DHT22;14521;48.148;-1.656;2023-06-22T04:59:40;23.40;92.40
26964;DHT22;14521;48.148;-1.656;2023-06-22T05:03:03;23.30;92.90
26964;DHT22;14521;48.148;-1.656;2023-06-22T05:06:40;23.30;92.50
26964;DHT22;14521;48.148;-1.656;2023-06-22T05:10:03;23.20;92.80
26964;DHT22;14521;48.148;-1.656;2023-06-22T05:13:25;23.10;92.80
26964;DHT22;14521;48.148;-1.656;2023-06-22T05:16:49;23.00;93.10
26964;DHT22;14521;48.148;-1.656;2023-06-22T05:20:12;22.90;92.70
26964;DHT22;14521;48.148;-1.656;2023-06-22T05:23:35;22.90;93.20
26964;DHT22;14521;48.148;-1.656;2023-06-22T05:26:57;22.90;93.30
26964;DHT22;14521;48.148;-1.656;2023-06-22T05:30:19;22.90;93.30
26964;DHT22;14521;48.148;-1.656;2023-06-22T05:33:44;22.80;93.70
26964;DHT22;14521;48.148;-1.656;2023-06-22T05:37:06;22.80;93.40
26964;DHT22;14521;48.148;-1.656;2023-06-22T05:40:28;22.90;93.20
26964;DHT22;14521;48.148;-1.656;2023-06-22T05:43:51;23.00;93.30
26964;DHT22;14521;48.148;-1.656;2023-06-22T05:47:13;23.00;92.70
26964;DHT22;14521;48.148;-1.656;2023-06-22T05:50:37;23.10;92.60
26964;DHT22;14521;48.148;-1.656;2023-06-22T05:53:59;23.20;92.30
26964;DHT22;14521;48.148;-1.656;2023-06-22T05:57:21;23.40;92.40
26964;DHT22;14521;48.148;-1.656;2023-06-22T06:00:44;23.50;92.10
26964;DHT22;14521;48.148;-1.656;2023-06-22T06:04:06;23.70;92.00
26964;DHT22;14521;48.148;-1.656;2023-06-22T06:07:31;23.80;91.90
26964;DHT22;14521;48.148;-1.656;2023-06-22T06:10:56;23.90;91.60
26964;DHT22;14521;48.148;-1.656;2023-06-22T06:14:19;24.00;91.60
26964;DHT22;14521;48.148;-1.656;2023-06-22T06:17:52;24.00;91.50
26964;DHT22;14521;48.148;-1.656;2023-06-22T06:21:15;24.00;91.50
26964;DHT22;14521;48.148;-1.656;2023-06-22T06:24:37;24.10;91.50
26964;DHT22;14521;48.148;-1.656;2023-06-22T06:27:59;24.10;91.40
26964;DHT22;14521;48.148;-1.656;2023-06-22T06:31:21;24.20;91.70
26964;DHT22;14521;48.148;-1.656;2023-06-22T06:34:45;24.20;91.70
26964;DHT22;14521;48.148;-1.656;2023-06-22T06:38:07;24.30;90.90
26964;DHT22;14521;48.148;-1.656;2023-06-22T06:41:29;24.20;91.20
26964;DHT22;14521;48.148;-1.656;2023-06-22T06:44:52;24.10;91.20
26964;DHT22;14521;48.148;-1.656;2023-06-22T06:48:14;24.00;91.50
26964;DHT22;14521;48.148;-1.656;2023-06-22T06:51:36;23.80;91.70
26964;DHT22;14521;48.148;-1.656;2023-06-22T06:54:59;23.90;91.70
26964;DHT22;14521;48.148;-1.656;2023-06-22T06:58:21;23.80;91.70
26964;DHT22;14521;48.148;-1.656;2023-06-22T07:01:45;23.80;92.20
26964;DHT22;14521;48.148;-1.656;2023-06-22T07:05:07;23.80;91.70
26964;DHT22;14521;48.148;-1.656;2023-06-22T07:08:30;23.80;91.70
26964;DHT22;14521;48.148;-1.656;2023-06-22T07:11:52;23.80;91.70
26964;DHT22;14521;48.148;-1.656;2023-06-22T07:15:15;23.80;91.70
26964;DHT22;14521;48.148;-1.656;2023-06-22T07:18:39;23.80;91.70
26964;DHT22;14521;48.148;-1.656;2023-06-22T07:22:02;23.80;91.80
26964;DHT22;14521;48.148;-1.656;2023-06-22T07:25:24;23.90;91.70
26964;DHT22;14521;48.148;-1.656;2023-06-22T07:28:46;24.00;91.50
26964;DHT22;14521;48.148;-1.656;2023-06-22T07:32:08;24.00;91.60
26964;DHT22;14521;48.148;-1.656;2023-06-22T07:35:31;24.10;91.50
26964;DHT22;14521;48.148;-1.656;2023-06-22T07:38:53;24.10;91.20
26964;DHT22;14521;48.148;-1.656;2023-06-22T07:42:15;24.10;91.30
26964;DHT22;14521;48.148;-1.656;2023-06-22T07:45:40;24.00;91.30
26964;DHT22;14521;48.148;-1.656;2023-06-22T07:49:12;24.00;91.30
26964;DHT22;14521;48.148;-1.656;2023-06-22T07:52:34;24.00;91.30
26964;DHT22;14521;48.148;-1.656;2023-06-22T07:55:56;23.90;91.30
26964;DHT22;14521;48.148;-1.656;2023-06-22T07:59:19;24.00;91.30
26964;DHT22;14521;48.148;-1.656;2023-06-22T08:02:42;24.00;91.20
26964;DHT22;14521;48.148;-1.656;2023-06-22T08:06:05;24.00;91.30
26964;DHT22;14521;48.148;-1.656;2023-06-22T08:09:29;24.10;91.50
26964;DHT22;14521;48.148;-1.656;2023-06-22T08:12:52;24.00;91.70
26964;DHT22;14521;48.148;-1.656;2023-06-22T08:16:14;24.00;91.20
26964;DHT22;14521;48.148;-1.656;2023-06-22T08:19:37;24.00;91.00
26964;DHT22;14521;48.148;-1.656;2023-06-22T08:22:59;24.00;90.80
26964;DHT22;14521;48.148;-1.656;2023-06-22T08:26:27;24.10;91.10
26964;DHT22;14521;48.148;-1.656;2023-06-22T08:29:49;24.10;90.70
26964;DHT22;14521;48.148;-1.656;2023-06-22T08:33:12;24.10;90.70
26964;DHT22;14521;48.148;-1.656;2023-06-22T08:36:48;24.20;90.70
26964;DHT22;14521;48.148;-1.656;2023-06-22T08:40:14;24.20;90.40
26964;DHT22;14521;48.148;-1.656;2023-06-22T08:43:36;24.20;90.60
26964;DHT22;14521;48.148;-1.656;2023-06-22T08:46:59;24.30;90.30
26964;DHT22;14521;48.148;-1.656;2023-06-22T08:50:21;24.30;90.20
26964;DHT22;14521;48.148;-1.656;2023-06-22T08:53:43;24.30;90.20
26964;DHT22;14521;48.148;-1.656;2023-06-22T08:57:07;24.30;90.10
26964;DHT22;14521;48.148;-1.656;2023-06-22T09:00:30;24.40;89.90
26964;DHT22;14521;48.148;-1.656;2023-06-22T09:03:54;24.40;90.10
26964;DHT22;14521;48.148;-1.656;2023-06-22T09:07:18;24.50;89.90
26964;DHT22;14521;48.148;-1.656;2023-06-22T09:10:44;24.50;89.30
26964;DHT22;14521;48.148;-1.656;2023-06-22T09:14:06;24.50;88.90
26964;DHT22;14521;48.148;-1.656;2023-06-22T09:17:29;24.50;89.40
26964;DHT22;14521;48.148;-1.656;2023-06-22T09:20:51;24.60;88.90
26964;DHT22;14521;48.148;-1.656;2023-06-22T09:24:14;24.60;88.70
26964;DHT22;14521;48.148;-1.656;2023-06-22T09:27:36;24.60;88.00
26964;DHT22;14521;48.148;-1.656;2023-06-22T09:30:58;24.60;88.40
26964;DHT22;14521;48.148;-1.656;2023-06-22T09:34:22;24.70;89.20
26964;DHT22;14521;48.148;-1.656;2023-06-22T09:37:44;24.80;89.10
26964;DHT22;14521;48.148;-1.656;2023-06-22T09:41:07;24.80;88.80
26964;DHT22;14521;48.148;-1.656;2023-06-22T09:44:29;24.90;88.90
26964;DHT22;14521;48.148;-1.656;2023-06-22T09:47:51;24.90;89.40
26964;DHT22;14521;48.148;-1.656;2023-06-22T09:51:14;25.00;88.90
26964;DHT22;14521;48.148;-1.656;2023-06-22T09:54:39;25.00;88.30
26964;DHT22;14521;48.148;-1.656;2023-06-22T09:58:01;25.00;87.90
26964;DHT22;14521;48.148;-1.656;2023-06-22T10:01:23;25.00;87.80
26964;DHT22;14521;48.148;-1.656;2023-06-22T10:04:46;25.00;88.20
26964;DHT22;14521;48.148;-1.656;2023-06-22T10:08:09;25.10;87.30
26964;DHT22;14521;48.148;-1.656;2023-06-22T10:11:32;25.10;88.00
26964;DHT22;14521;48.148;-1.656;2023-06-22T10:14:57;25.10;88.00
26964;DHT22;14521;48.148;-1.656;2023-06-22T10:18:20;25.10;88.60
26964;DHT22;14521;48.148;-1.656;2023-06-22T10:21:42;25.20;87.40
26964;DHT22;14521;48.148;-1.656;2023-06-22T10:25:05;25.10;88.20
26964;DHT22;14521;48.148;-1.656;2023-06-22T10:28:27;25.10;87.50
26964;DHT22;14521;48.148;-1.656;2023-06-22T10:31:53;25.20;88.20
26964;DHT22;14521;48.148;-1.656;2023-06-22T10:35:16;25.20;86.90
26964;DHT22;14521;48.148;-1.656;2023-06-22T10:38:38;25.20;86.90
26964;DHT22;14521;48.148;-1.656;2023-06-22T10:42:00;25.20;87.00
26964;DHT22;14521;48.148;-1.656;2023-06-22T10:45:22;25.20;87.50
26964;DHT22;14521;48.148;-1.656;2023-06-22T10:48:45;25.20;87.10
26964;DHT22;14521;48.148;-1.656;2023-06-22T10:52:08;25.20;87.30
26964;DHT22;14521;48.148;-1.656;2023-06-22T10:55:30;25.20;86.60
26964;DHT22;14521;48.148;-1.656;2023-06-22T10:59:13;25.20;86.60
26964;DHT22;14521;48.148;-1.656;2023-06-22T11:02:35;25.20;86.60
26964;DHT22;14521;48.148;-1.656;2023-06-22T11:05:57;25.30;86.40
26964;DHT22;14521;48.148;-1.656;2023-06-22T11:09:20;25.30;87.10
26964;DHT22;14521;48.148;-1.656;2023-06-22T11:12:49;25.30;86.40
26964;DHT22;14521;48.148;-1.656;2023-06-22T11:16:11;25.30;85.70
26964;DHT22;14521;48.148;-1.656;2023-06-22T11:19:34;25.30;85.60
26964;DHT22;14521;48.148;-1.656;2023-06-22T11:22:56;25.30;85.90
26964;DHT22;14521;48.148;-1.656;2023-06-22T11:26:18;25.40;86.30
26964;DHT22;14521;48.148;-1.656;2023-06-22T11:29:41;25.40;87.60
26964;DHT22;14521;48.148;-1.656;2023-06-22T11:33:03;25.40;87.30
26964;DHT22;14521;48.148;-1.656;2023-06-22T11:36:26;25.40;88.20
26964;DHT22;14521;48.148;-1.656;2023-06-22T11:39:48;25.40;86.40
26964;DHT22;14521;48.148;-1.656;2023-06-22T11:43:14;25.40;85.20
26964;DHT22;14521;48.148;-1.656;2023-06-22T11:46:37;25.50;86.70
26964;DHT22;14521;48.148;-1.656;2023-06-22T11:49:59;25.40;86.40
26964;DHT22;14521;48.148;-1.656;2023-06-22T11:53:23;25.40;85.60
26964;DHT22;14521;48.148;-1.656;2023-06-22T11:56:46;25.40;84.50
26964;DHT22;14521;48.148;-1.656;2023-06-22T12:00:09;25.40;84.70
26964;DHT22;14521;48.148;-1.656;2023-06-22T12:03:38;25.40;84.80
26964;DHT22;14521;48.148;-1.656;2023-06-22T12:07:01;25.50;86.00
26964;DHT22;14521;48.148;-1.656;2023-06-22T12:10:25;25.40;85.40
26964;DHT22;14521;48.148;-1.656;2023-06-22T12:13:48;25.50;84.80
26964;DHT22;14521;48.148;-1.656;2023-06-22T12:17:10;25.50;86.50
26964;DHT22;14521;48.148;-1.656;2023-06-22T12:20:32;25.40;85.20
26964;DHT22;14521;48.148;-1.656;2023-06-22T12:23:55;25.50;86.50
26964;DHT22;14521;48.148;-1.656;2023-06-22T12:27:17;25.50;86.50
26964;DHT22;14521;48.148;-1.656;2023-06-22T12:30:40;25.50;86.70
26964;DHT22;14521;48.148;-1.656;2023-06-22T12:34:02;25.50;86.00
26964;DHT22;14521;48.148;-1.656;2023-06-22T12:37:24;25.50;87.00
26964;DHT22;14521;48.148;-1.656;2023-06-22T12:40:47;25.50;87.50
26964;DHT22;14521;48.148;-1.656;2023-06-22T12:44:11;25.60;87.50
26964;DHT22;14521;48.148;-1.656;2023-06-22T12:47:33;25.50;86.90
26964;DHT22;14521;48.148;-1.656;2023-06-22T12:50:56;25.60;86.20
26964;DHT22;14521;48.148;-1.656;2023-06-22T12:54:18;25.60;87.80
26964;DHT22;14521;48.148;-1.656;2023-06-22T12:57:40;25.60;87.60
26964;DHT22;14521;48.148;-1.656;2023-06-22T13:01:02;25.60;88.00
26964;DHT22;14521;48.148;-1.656;2023-06-22T13:04:25;25.50;88.10
26964;DHT22;14521;48.148;-1.656;2023-06-22T13:07:47;25.60;88.80
26964;DHT22;14521;48.148;-1.656;2023-06-22T13:11:09;25.60;89.10
26964;DHT22;14521;48.148;-1.656;2023-06-22T13:14:31;25.60;88.40
26964;DHT22;14521;48.148;-1.656;2023-06-22T13:17:54;25.60;88.00
26964;DHT22;14521;48.148;-1.656;2023-06-22T13:21:17;25.70;87.90
26964;DHT22;14521;48.148;-1.656;2023-06-22T13:24:39;25.60;88.80
26964;DHT22;14521;48.148;-1.656;2023-06-22T13:28:01;25.70;87.90
26964;DHT22;14521;48.148;-1.656;2023-06-22T13:31:26;25.70;87.70
26964;DHT22;14521;48.148;-1.656;2023-06-22T13:34:48;25.70;88.10
26964;DHT22;14521;48.148;-1.656;2023-06-22T13:38:11;25.70;87.90
26964;DHT22;14521;48.148;-1.656;2023-06-22T13:41:33;25.70;88.90
26964;DHT22;14521;48.148;-1.656;2023-06-22T13:44:55;25.70;86.80
26964;DHT22;14521;48.148;-1.656;2023-06-22T13:48:17;25.70;87.50
26964;DHT22;14521;48.148;-1.656;2023-06-22T13:51:40;25.70;87.40
26964;DHT22;14521;48.148;-1.656;2023-06-22T13:55:02;25.70;87.40
26964;DHT22;14521;48.148;-1.656;2023-06-22T13:58:24;25.70;87.30
26964;DHT22;14521;48.148;-1.656;2023-06-22T14:01:46;25.70;87.30
26964;DHT22;14521;48.148;-1.656;2023-06-22T14:05:09;25.70;86.90
26964;DHT22;14521;48.148;-1.656;2023-06-22T14:08:32;25.70;86.90
26964;DHT22;14521;48.148;-1.656;2023-06-22T14:12:04;25.70;86.50
26964;DHT22;14521;48.148;-1.656;2023-06-22T14:15:27;25.70;86.20
26964;DHT22;14521;48.148;-1.656;2023-06-22T14:18:50;25.70;86.00
26964;DHT22;14521;48.148;-1.656;2023-06-22T14:22:12;25.70;86.50
26964;DHT22;14521;48.148;-1.656;2023-06-22T14:25:34;25.80;86.50
26964;DHT22;14521;48.148;-1.656;2023-06-22T14:28:56;25.80;86.10
26964;DHT22;14521;48.148;-1.656;2023-06-22T14:32:19;25.80;86.10
26964;DHT22;14521;48.148;-1.656;2023-06-22T14:35:41;25.80;86.10
26964;DHT22;14521;48.148;-1.656;2023-06-22T14:39:03;25.80;85.00
26964;DHT22;14521;48.148;-1.656;2023-06-22T14:42:26;25.80;83.10
26964;DHT22;14521;48.148;-1.656;2023-06-22T14:45:48;25.80;81.90
26964;DHT22;14521;48.148;-1.656;2023-06-22T14:49:14;25.80;81.80
26964;DHT22;14521;48.148;-1.656;2023-06-22T14:52:36;25.80;82.60
26964;DHT22;14521;48.148;-1.656;2023-06-22T14:55:59;25.80;82.60
26964;DHT22;14521;48.148;-1.656;2023-06-22T14:59:23;25.80;82.40
26964;DHT22;14521;48.148;-1.656;2023-06-22T15:02:46;25.90;84.20
26964;DHT22;14521;48.148;-1.656;2023-06-22T15:06:08;25.90;83.10
26964;DHT22;14521;48.148;-1.656;2023-06-22T15:09:31;25.90;82.40
26964;DHT22;14521;48.148;-1.656;2023-06-22T15:12:53;25.90;81.40
26964;DHT22;14521;48.148;-1.656;2023-06-22T15:16:15;25.90;81.60
26964;DHT22;14521;48.148;-1.656;2023-06-22T15:19:38;25.90;81.20
26964;DHT22;14521;48.148;-1.656;2023-06-22T15:23:00;25.90;80.60
26964;DHT22;14521;48.148;-1.656;2023-06-22T15:26:22;25.90;81.60
26964;DHT22;14521;48.148;-1.656;2023-06-22T15:29:45;25.90;82.20
26964;DHT22;14521;48.148;-1.656;2023-06-22T15:33:07;25.80;81.60
26964;DHT22;14521;48.148;-1.656;2023-06-22T15:36:30;25.80;81.20
26964;DHT22;14521;48.148;-1.656;2023-06-22T15:39:52;25.90;82.90
26964;DHT22;14521;48.148;-1.656;2023-06-22T15:43:14;25.90;81.10
26964;DHT22;14521;48.148;-1.656;2023-06-22T15:46:36;25.90;81.40
26964;DHT22;14521;48.148;-1.656;2023-06-22T15:49:59;25.90;81.10
26964;DHT22;14521;48.148;-1.656;2023-06-22T15:53:22;25.90;78.20
26964;DHT22;14521;48.148;-1.656;2023-06-22T15:56:45;25.90;77.40
26964;DHT22;14521;48.148;-1.656;2023-06-22T16:00:07;25.90;76.90
26964;DHT22;14521;48.148;-1.656;2023-06-22T16:03:30;25.90;77.60
26964;DHT22;14521;48.148;-1.656;2023-06-22T16:06:52;25.90;76.90
26964;DHT22;14521;48.148;-1.656;2023-06-22T16:10:15;25.90;77.40
26964;DHT22;14521;48.148;-1.656;2023-06-22T16:13:38;25.90;76.70
26964;DHT22;14521;48.148;-1.656;2023-06-22T16:17:01;25.90;77.30
26964;DHT22;14521;48.148;-1.656;2023-06-22T16:20:26;25.80;76.50
26964;DHT22;14521;48.148;-1.656;2023-06-22T16:23:48;25.80;75.90
26964;DHT22;14521;48.148;-1.656;2023-06-22T16:27:10;25.80;75.00
26964;DHT22;14521;48.148;-1.656;2023-06-22T16:30:33;25.80;75.40
26964;DHT22;14521;48.148;-1.656;2023-06-22T16:33:55;25.80;75.80
26964;DHT22;14521;48.148;-1.656;2023-06-22T16:37:17;25.80;75.80
26964;DHT22;14521;48.148;-1.656;2023-06-22T16:40:40;25.80;76.40
26964;DHT22;14521;48.148;-1.656;2023-06-22T16:44:02;25.80;76.40
26964;DHT22;14521;48.148;-1.656;2023-06-22T16:47:27;25.80;76.80
26964;DHT22;14521;48.148;-1.656;2023-06-22T16:50:51;25.80;79.20
26964;DHT22;14521;48.148;-1.656;2023-06-22T16:54:13;25.90;77.50
26964;DHT22;14521;48.148;-1.656;2023-06-22T16:57:36;25.80;78.70
26964;DHT22;14521;48.148;-1.656;2023-06-22T17:00:59;25.80;78.80
26964;DHT22;14521;48.148;-1.656;2023-06-22T17:04:24;25.90;77.80
26964;DHT22;14521;48.148;-1.656;2023-06-22T17:07:53;25.90;78.40
26964;DHT22;14521;48.148;-1.656;2023-06-22T17:11:16;25.90;78.50
26964;DHT22;14521;48.148;-1.656;2023-06-22T17:14:39;25.90;79.00
26964;DHT22;14521;48.148;-1.656;2023-06-22T17:18:04;25.90;78.80
26964;DHT22;14521;48.148;-1.656;2023-06-22T17:21:26;26.00;78.60
26964;DHT22;14521;48.148;-1.656;2023-06-22T17:24:50;25.90;79.60
26964;DHT22;14521;48.148;-1.656;2023-06-22T17:28:13;26.00;79.20
26964;DHT22;14521;48.148;-1.656;2023-06-22T17:31:36;26.00;80.80
26964;DHT22;14521;48.148;-1.656;2023-06-22T17:35:01;26.00;79.70
26964;DHT22;14521;48.148;-1.656;2023-06-22T17:38:23;26.00;79.20
26964;DHT22;14521;48.148;-1.656;2023-06-22T17:41:48;26.10;78.90
26964;DHT22;14521;48.148;-1.656;2023-06-22T17:45:17;26.10;78.70
26964;DHT22;14521;48.148;-1.656;2023-06-22T17:48:43;26.00;78.70
26964;DHT22;14521;48.148;-1.656;2023-06-22T17:52:16;26.00;79.10
26964;DHT22;14521;48.148;-1.656;2023-06-22T17:55:38;26.00;79.20
26964;DHT22;14521;48.148;-1.656;2023-06-22T17:59:02;26.10;80.10
26964;DHT22;14521;48.148;-1.656;2023-06-22T18:02:24;26.10;78.40
26964;DHT22;14521;48.148;-1.656;2023-06-22T18:05:48;26.20;77.60
26964;DHT22;14521;48.148;-1.656;2023-06-22T18:09:11;26.20;77.80
26964;DHT22;14521;48.148;-1.656;2023-06-22T18:12:35;26.30;77.40
26964;DHT22;14521;48.148;-1.656;2023-06-22T18:15:58;26.20;76.10
26964;DHT22;14521;48.148;-1.656;2023-06-22T18:19:20;26.20;77.10
26964;DHT22;14521;48.148;-1.656;2023-06-22T18:22:43;26.20;76.40
26964;DHT22;14521;48.148;-1.656;2023-06-22T18:26:05;26.20;75.90
26964;DHT22;14521;48.148;-1.656;2023-06-22T18:29:29;26.10;76.40
26964;DHT22;14521;48.148;-1.656;2023-06-22T18:32:52;26.10;78.20
26964;DHT22;14521;48.148;-1.656;2023-06-22T18:36:16;26.10;77.40
26964;DHT22;14521;48.148;-1.656;2023-06-22T18:39:42;26.00;77.90
26964;DHT22;14521;48.148;-1.656;2023-06-22T18:43:06;26.00;77.10
26964;DHT22;14521;48.148;-1.656;2023-06-22T18:46:36;25.90;77.20
26964;DHT22;14521;48.148;-1.656;2023-06-22T18:50:07;25.90;77.40
26964;DHT22;14521;48.148;-1.656;2023-06-22T18:53:29;25.90;77.30
26964;DHT22;14521;48.148;-1.656;2023-06-22T18:56:56;25.90;76.80
26964;DHT22;14521;48.148;-1.656;2023-06-22T19:00:30;25.90;76.40
26964;DHT22;14521;48.148;-1.656;2023-06-22T19:03:56;25.90;76.40
26964;DHT22;14521;48.148;-1.656;2023-06-22T19:11:14;25.90;76.30
26964;DHT22;14521;48.148;-1.656;2023-06-22T19:14:37;25.90;77.80
26964;DHT22;14521;48.148;-1.656;2023-06-22T19:18:20;25.80;76.00
26964;DHT22;14521;48.148;-1.656;2023-06-22T19:21:58;25.70;76.40
26964;DHT22;14521;48.148;-1.656;2023-06-22T19:25:22;25.60;77.00
26964;DHT22;14521;48.148;-1.656;2023-06-22T19:28:52;25.50;77.30
26964;DHT22;14521;48.148;-1.656;2023-06-22T19:32:14;25.50;77.50
26964;DHT22;14521;48.148;-1.656;2023-06-22T19:35:38;25.50;77.80
26964;DHT22;14521;48.148;-1.656;2023-06-22T19:39:01;25.50;77.90
26964;DHT22;14521;48.148;-1.656;2023-06-22T19:42:24;25.40;78.20
26964;DHT22;14521;48.148;-1.656;2023-06-22T19:45:47;25.40;78.50
26964;DHT22;14521;48.148;-1.656;2023-06-22T19:49:09;25.30;78.60
26964;DHT22;14521;48.148;-1.656;2023-06-22T19:52:45;25.30;78.70
26964;DHT22;14521;48.148;-1.656;2023-06-22T19:56:08;25.30;79.80
26964;DHT22;14521;48.148;-1.656;2023-06-22T19:59:30;25.30;79.40
26964;DHT22;14521;48.148;-1.656;2023-06-22T20:02:53;25.20;80.20
26964;DHT22;14521;48.148;-1.656;2023-06-22T20:06:16;25.20;79.80
26964;DHT22;14521;48.148;-1.656;2023-06-22T20:09:40;25.20;80.00
26964;DHT22;14521;48.148;-1.656;2023-06-22T20:13:10;25.10;80.40
26964;DHT22;14521;48.148;-1.656;2023-06-22T20:16:46;25.10;80.70
26964;DHT22;14521;48.148;-1.656;2023-06-22T20:20:18;25.00;80.70
26964;DHT22;14521;48.148;-1.656;2023-06-22T20:23:41;24.90;81.90
26964;DHT22;14521;48.148;-1.656;2023-06-22T20:27:10;24.80;81.60
26964;DHT22;14521;48.148;-1.656;2023-06-22T20:30:34;24.70;81.80
26964;DHT22;14521;48.148;-1.656;2023-06-22T20:34:03;24.70;82.10
26964;DHT22;14521;48.148;-1.656;2023-06-22T20:37:25;24.60;82.50
26964;DHT22;14521;48.148;-1.656;2023-06-22T20:40:54;24.60;82.70
26964;DHT22;14521;48.148;-1.656;2023-06-22T20:44:17;24.50;82.80
26964;DHT22;14521;48.148;-1.656;2023-06-22T20:47:39;24.60;83.00
26964;DHT22;14521;48.148;-1.656;2023-06-22T20:51:03;24.70;82.80
26964;DHT22;14521;48.148;-1.656;2023-06-22T20:54:25;24.80;82.50
26964;DHT22;14521;48.148;-1.656;2023-06-22T20:57:47;24.80;82.40
26964;DHT22;14521;48.148;-1.656;2023-06-22T21:01:10;24.80;82.40
26964;DHT22;14521;48.148;-1.656;2023-06-22T21:04:40;24.80;82.40
26964;DHT22;14521;48.148;-1.656;2023-06-22T21:08:02;24.80;82.40
26964;DHT22;14521;48.148;-1.656;2023-06-22T21:11:24;24.80;82.50
26964;DHT22;14521;48.148;-1.656;2023-06-22T21:14:47;24.70;82.50
26964;DHT22;14521;48.148;-1.656;2023-06-22T21:18:09;24.70;82.50
26964;DHT22;14521;48.148;-1.656;2023-06-22T21:21:31;24.70;82.50